createdAt,value
2022-11-01T00:01:26.413Z,15.55
2022-11-01T00:03:52.961Z,15.80
2022-11-01T00:06:19.731Z,16.25
2022-11-01T00:08:46.324Z,16.33
2022-11-01T00:11:14.311Z,16.85
2022-11-01T00:13:45.202Z,15.95
2022-11-01T00:16:11.859Z,16.67
2022-11-01T00:18:38.650Z,15.38
2022-11-01T00:21:05.622Z,15.50
2022-11-01T00:23:32.236Z,15.40
2022-11-01T00:25:59.436Z,16.30
2022-11-01T00:28:26.148Z,15.38
2022-11-01T00:30:55.390Z,15.52
2022-11-01T00:33:22.005Z,15.65
2022-11-01T00:35:48.573Z,16.15
2022-11-01T00:38:16.352Z,15.77
2022-11-01T00:40:43.577Z,14.93
2022-11-01T00:43:10.775Z,15.13
2022-11-01T00:45:37.462Z,15.13
2022-11-01T00:48:06.181Z,15.30
2022-11-01T00:50:32.779Z,14.77
2022-11-01T00:52:59.362Z,13.95
2022-11-01T00:55:26.046Z,13.90
2022-11-01T00:57:52.657Z,13.70
2022-11-01T01:00:19.506Z,13.35
2022-11-01T01:02:46.060Z,13.30
2022-11-01T01:05:13.988Z,12.55
2022-11-01T01:07:40.684Z,12.25
2022-11-01T01:10:08.130Z,12.18
2022-11-01T01:12:34.709Z,12.57
2022-11-01T01:15:01.743Z,12.60
2022-11-01T01:17:31.245Z,11.85
2022-11-01T01:20:00.378Z,12.40
2022-11-01T01:22:28.535Z,11.65
2022-11-01T01:24:55.147Z,12.02
2022-11-01T01:27:21.876Z,11.50
2022-11-01T01:29:48.417Z,11.30
2022-11-01T01:32:16.518Z,11.68
2022-11-01T01:34:43.103Z,10.77
2022-11-01T01:37:10.799Z,11.40
2022-11-01T01:39:38.782Z,11.57
2022-11-01T01:42:16.021Z,11.95
2022-11-01T01:45:14.885Z,12.88
2022-11-01T01:47:43.196Z,11.95
2022-11-01T01:50:13.251Z,11.35
2022-11-01T01:52:43.817Z,11.95
2022-11-01T01:55:15.010Z,12.20
2022-11-01T01:57:42.507Z,12.27
2022-11-01T02:00:10.454Z,12.32
2022-11-01T02:02:37.179Z,13.02
2022-11-01T02:05:10.625Z,11.85
2022-11-01T02:07:37.274Z,12.82
2022-11-01T02:10:04.693Z,12.20
2022-11-01T02:12:35.895Z,13.90
2022-11-01T02:15:03.998Z,13.98
2022-11-01T02:17:35.782Z,13.40
2022-11-01T02:20:25.645Z,12.82
2022-11-01T02:23:19.897Z,13.52
2022-11-01T02:26:00.507Z,12.40
2022-11-01T02:28:47.754Z,12.48
2022-11-01T02:31:35.122Z,12.77
2022-11-01T02:34:10.613Z,14.55
2022-11-01T02:36:44.407Z,14.75
2022-11-01T02:39:18.642Z,15.18
2022-11-01T02:41:50.931Z,12.98
2022-11-01T02:44:22.943Z,16.50
2022-11-01T02:46:49.575Z,16.13
2022-11-01T02:49:18.710Z,13.95
2022-11-01T02:51:47.004Z,14.63
2022-11-01T02:54:20.822Z,15.88
2022-11-01T02:56:47.449Z,14.45
2022-11-01T02:59:19.688Z,14.95
2022-11-01T03:01:52.237Z,14.68
2022-11-01T03:04:20.356Z,15.00
2022-11-01T03:06:51.501Z,15.10
2022-11-01T03:09:18.170Z,15.48
2022-11-01T03:11:54.639Z,14.23
2022-11-01T03:14:30.285Z,14.45
2022-11-01T03:17:02.362Z,14.68
2022-11-01T03:19:37.715Z,15.45
2022-11-01T03:22:10.679Z,13.50
2022-11-01T03:24:44.007Z,13.82
2022-11-01T03:27:16.235Z,13.65
2022-11-01T03:29:48.326Z,13.90
2022-11-01T03:32:16.899Z,13.00
2022-11-01T03:34:46.475Z,13.52
2022-11-01T03:37:13.682Z,14.13
2022-11-01T03:39:44.615Z,14.60
2022-11-01T03:42:14.798Z,13.57
2022-11-01T03:44:44.753Z,14.20
2022-11-01T03:47:12.148Z,13.35
2022-11-01T03:49:38.809Z,13.70
2022-11-01T03:52:06.993Z,13.23
2022-11-01T03:54:33.650Z,12.45
2022-11-01T03:57:00.271Z,12.90
2022-11-01T03:59:26.847Z,13.75
2022-11-01T04:01:53.529Z,13.55
2022-11-01T04:04:20.221Z,13.27
2022-11-01T04:06:46.806Z,13.93
2022-11-01T04:09:14.705Z,14.32
2022-11-01T04:11:41.267Z,14.70
2022-11-01T04:14:07.852Z,14.43
2022-11-01T04:16:34.410Z,14.82
2022-11-01T04:19:00.965Z,17.25
2022-11-01T04:21:31.295Z,17.63
2022-11-01T04:23:58.124Z,16.40
2022-11-01T04:26:26.323Z,15.95
2022-11-01T04:28:52.897Z,15.77
2022-11-01T04:31:19.467Z,17.23
2022-11-01T04:33:46.138Z,16.45
2022-11-01T04:36:12.704Z,16.30
2022-11-01T04:38:39.306Z,17.05
2022-11-01T04:41:05.891Z,16.65
2022-11-01T04:43:33.811Z,17.20
2022-11-01T04:46:00.397Z,15.75
2022-11-01T04:48:27.044Z,15.93
2022-11-01T04:50:53.634Z,16.45
2022-11-01T04:53:20.205Z,15.40
2022-11-01T04:55:46.762Z,14.90
2022-11-01T04:58:13.328Z,15.05
2022-11-01T05:00:41.266Z,14.50
2022-11-01T05:03:09.786Z,14.75
2022-11-01T05:05:36.473Z,14.07
2022-11-01T05:08:05.344Z,15.02
2022-11-01T05:10:32.751Z,14.60
2022-11-01T05:12:59.713Z,14.48
2022-11-01T05:15:26.866Z,15.05
2022-11-01T05:17:54.789Z,15.35
2022-11-01T05:20:21.363Z,14.02
2022-11-01T05:22:47.922Z,17.02
2022-11-01T05:25:14.693Z,15.25
2022-11-01T05:27:41.266Z,14.05
2022-11-01T05:30:09.402Z,15.07
2022-11-01T05:32:36.130Z,14.77
2022-11-01T05:35:04.994Z,13.70
2022-11-01T05:37:31.562Z,14.65
2022-11-01T05:39:58.096Z,14.25
2022-11-01T05:42:24.668Z,15.93
2022-11-01T05:44:51.184Z,13.57
2022-11-01T05:47:17.784Z,13.68
2022-11-01T05:49:44.348Z,14.05
2022-11-01T05:52:12.283Z,14.77
2022-11-01T05:54:38.833Z,13.63
2022-11-01T05:57:05.745Z,14.80
2022-11-01T05:59:32.310Z,14.30
2022-11-01T06:01:58.959Z,13.85
2022-11-01T06:04:25.588Z,13.10
2022-11-01T06:06:52.130Z,12.82
2022-11-01T06:09:20.152Z,14.32
2022-11-01T06:11:46.741Z,12.27
2022-11-01T06:14:13.314Z,13.73
2022-11-01T06:16:39.884Z,13.88
2022-11-01T06:19:06.590Z,12.43
2022-11-01T06:21:33.324Z,12.57
2022-11-01T06:23:59.885Z,12.32
2022-11-01T06:26:27.818Z,13.20
2022-11-01T06:28:54.403Z,13.40
2022-11-01T06:31:20.996Z,13.27
2022-11-01T06:33:49.081Z,13.07
2022-11-01T06:36:15.613Z,12.55
2022-11-01T06:38:42.194Z,13.38
2022-11-01T06:41:08.722Z,12.20
2022-11-01T06:43:36.672Z,12.25
2022-11-01T06:46:03.482Z,13.00
2022-11-01T06:48:30.227Z,12.43
2022-11-01T06:50:56.785Z,13.18
2022-11-01T06:53:23.962Z,12.18
2022-11-01T06:55:50.928Z,12.05
2022-11-01T06:58:17.595Z,12.57
2022-11-01T07:00:45.627Z,11.25
2022-11-01T07:03:14.120Z,11.57
2022-11-01T07:05:41.501Z,11.88
2022-11-01T07:08:10.480Z,11.55
2022-11-01T07:10:38.265Z,12.38
2022-11-01T07:13:06.267Z,12.27
2022-11-01T07:15:32.871Z,13.38
2022-11-01T07:18:02.880Z,13.00
2022-11-01T07:20:31.131Z,14.07
2022-11-01T07:22:58.980Z,13.15
2022-11-01T07:25:26.043Z,14.63
2022-11-01T07:27:52.741Z,12.65
2022-11-01T07:30:19.526Z,13.18
2022-11-01T07:32:46.350Z,12.25
2022-11-01T07:35:14.455Z,13.07
2022-11-01T07:37:41.135Z,12.60
2022-11-01T07:40:08.430Z,12.75
2022-11-01T07:42:41.066Z,12.95
2022-11-01T07:45:11.981Z,12.27
2022-11-01T07:50:07.231Z,11.77
2022-11-01T07:52:35.141Z,11.57
2022-11-01T07:55:01.659Z,10.73
2022-11-01T07:57:28.198Z,11.07
2022-11-01T07:59:54.753Z,10.65
2022-11-01T08:02:21.412Z,11.27
2022-11-01T08:04:48.042Z,11.02
2022-11-01T08:07:14.594Z,10.52
2022-11-01T08:09:42.480Z,10.73
2022-11-01T08:12:08.995Z,9.98
2022-11-01T08:14:35.561Z,9.70
2022-11-01T08:17:02.057Z,10.10
2022-11-01T08:19:28.703Z,10.02
2022-11-01T08:21:57.552Z,11.25
2022-11-01T08:24:24.088Z,10.20
2022-11-01T08:26:52.097Z,10.35
2022-11-01T08:29:18.866Z,10.80
2022-11-01T08:31:45.721Z,11.13
2022-11-01T08:34:15.889Z,11.00
2022-11-01T08:36:43.345Z,11.53
2022-11-01T08:41:41.512Z,11.52
2022-11-01T08:44:09.733Z,11.32
2022-11-01T08:46:36.267Z,12.23
2022-11-01T08:49:02.812Z,12.25
2022-11-01T08:51:29.346Z,11.52
2022-11-01T08:53:56.305Z,12.20
2022-11-01T08:56:22.927Z,13.13
2022-11-01T08:58:49.491Z,14.38
2022-11-01T09:01:17.742Z,11.48
2022-11-01T09:03:44.399Z,12.43
2022-11-01T09:06:10.959Z,13.32
2022-11-01T09:08:37.551Z,12.07
2022-11-01T09:11:04.274Z,15.85
2022-11-01T09:13:30.853Z,11.93
2022-11-01T09:16:01.415Z,10.98
2022-11-01T09:20:57.330Z,12.32
2022-11-01T09:23:23.900Z,11.70
2022-11-01T09:25:50.435Z,10.60
2022-11-01T09:28:17.022Z,11.85
2022-11-01T09:30:49.653Z,11.70
2022-11-01T09:33:21.731Z,13.15
2022-11-01T09:35:55.300Z,11.40
2022-11-01T09:38:23.632Z,11.10
2022-11-01T09:40:59.550Z,11.82
2022-11-01T09:43:30.784Z,11.27
2022-11-01T09:45:58.512Z,11.80
2022-11-01T09:48:27.311Z,14.48
2022-11-01T09:50:55.354Z,14.48
2022-11-01T09:53:25.933Z,19.80
2022-11-01T09:56:00.131Z,10.10
2022-11-01T09:58:36.810Z,11.10
2022-11-01T10:01:17.444Z,11.18
2022-11-01T10:03:53.440Z,10.70
2022-11-01T10:06:25.201Z,9.40
2022-11-01T10:09:02.155Z,9.23
2022-11-01T10:11:47.549Z,10.02
2022-11-01T10:14:27.373Z,9.63
2022-11-01T10:17:06.805Z,9.13
2022-11-01T10:19:34.257Z,8.55
2022-11-01T10:22:07.525Z,8.63
2022-11-01T10:24:40.784Z,10.00
2022-11-01T10:27:16.830Z,9.60
2022-11-01T10:29:47.395Z,10.00
2022-11-01T10:32:26.764Z,14.02
2022-11-01T10:34:54.904Z,11.27
2022-11-01T10:37:26.923Z,10.95
2022-11-01T10:39:59.048Z,12.40
2022-11-01T10:42:28.564Z,10.77
2022-11-01T10:44:59.620Z,12.25
2022-11-01T10:47:26.823Z,10.37
2022-11-01T10:50:07.408Z,11.07
2022-11-01T10:52:51.258Z,11.60
2022-11-01T10:55:22.833Z,11.63
2022-11-01T10:57:55.462Z,12.32
2022-11-01T11:00:22.138Z,12.18
2022-11-01T11:02:52.222Z,12.55
2022-11-01T11:05:20.679Z,11.75
2022-11-01T11:07:48.729Z,11.15
2022-11-01T11:10:23.025Z,11.55
2022-11-01T11:12:56.195Z,11.68
2022-11-01T11:15:35.596Z,12.55
2022-11-01T11:18:07.918Z,13.15
2022-11-01T11:20:34.609Z,11.70
2022-11-01T11:23:03.641Z,12.30
2022-11-01T11:25:35.104Z,11.88
2022-11-01T11:28:02.867Z,11.63
2022-11-01T11:30:31.320Z,11.07
2022-11-01T11:32:58.717Z,11.15
2022-11-01T11:35:27.383Z,11.77
2022-11-01T11:37:56.279Z,11.80
2022-11-01T11:40:25.956Z,13.68
2022-11-01T11:42:54.586Z,13.80
2022-11-01T11:45:25.050Z,13.02
2022-11-01T11:47:51.862Z,13.90
2022-11-01T11:50:27.217Z,13.73
2022-11-01T11:52:59.848Z,13.38
2022-11-01T11:55:39.965Z,14.27
2022-11-01T11:58:18.310Z,12.98
2022-11-01T12:00:49.233Z,11.90
2022-11-01T12:03:16.787Z,12.98
2022-11-01T12:05:55.765Z,12.75
2022-11-01T12:08:34.542Z,13.00
2022-11-01T12:11:03.691Z,13.80
2022-11-01T12:13:34.104Z,14.38
2022-11-01T12:16:17.836Z,12.75
2022-11-01T12:18:49.605Z,13.18
2022-11-01T12:21:19.647Z,13.60
2022-11-01T12:23:48.100Z,12.15
2022-11-01T12:26:17.850Z,13.20
2022-11-01T12:28:48.935Z,11.98
2022-11-01T12:31:19.292Z,12.93
2022-11-01T12:33:49.183Z,13.85
2022-11-01T12:36:20.315Z,13.02
2022-11-01T12:38:51.113Z,12.32
2022-11-01T12:41:29.787Z,12.77
2022-11-01T12:44:04.814Z,13.27
2022-11-01T12:46:38.092Z,14.52
2022-11-01T12:49:12.379Z,15.00
2022-11-01T12:51:44.873Z,15.48
2022-11-01T12:54:16.885Z,15.38
2022-11-01T12:56:44.881Z,15.50
2022-11-01T12:59:15.563Z,15.35
2022-11-01T13:01:50.810Z,15.63
2022-11-01T13:04:26.484Z,15.65
2022-11-01T13:07:11.045Z,15.63
2022-11-01T13:09:49.086Z,15.77
2022-11-01T13:12:26.590Z,16.60
2022-11-01T13:15:04.270Z,15.98
2022-11-01T13:17:39.467Z,16.27
2022-11-01T13:20:21.053Z,15.73
2022-11-01T13:22:56.473Z,15.35
2022-11-01T13:25:31.189Z,16.63
2022-11-01T13:28:15.986Z,14.80
2022-11-01T13:30:48.996Z,15.07
2022-11-01T13:33:21.804Z,15.25
2022-11-01T13:35:56.597Z,16.40
2022-11-01T13:38:32.489Z,14.63
2022-11-01T13:41:07.096Z,16.65
2022-11-01T13:43:39.790Z,15.05
2022-11-01T13:46:45.302Z,15.23
2022-11-01T13:49:49.098Z,14.55
2022-11-01T13:52:18.668Z,15.48
2022-11-01T13:54:53.104Z,14.25
2022-11-01T13:57:23.229Z,13.98
2022-11-01T13:59:56.687Z,15.20
2022-11-01T14:02:44.316Z,16.05
2022-11-01T14:05:12.077Z,15.63
2022-11-01T14:07:59.736Z,15.50
2022-11-01T14:10:46.115Z,16.20
2022-11-01T14:13:16.713Z,16.05
2022-11-01T14:16:24.453Z,15.20
2022-11-01T14:19:21.016Z,16.92
2022-11-01T14:21:51.572Z,17.02
2022-11-01T14:24:24.285Z,16.85
2022-11-01T14:27:18.424Z,15.65
2022-11-01T14:29:47.972Z,16.42
2022-11-01T14:32:14.588Z,15.88
2022-11-01T14:34:42.730Z,16.77
2022-11-01T14:37:18.321Z,17.30
2022-11-01T14:39:54.782Z,16.25
2022-11-01T14:42:26.026Z,17.45
2022-11-01T14:44:54.973Z,18.52
2022-11-01T14:47:31.174Z,16.73
2022-11-01T14:50:05.136Z,17.80
2022-11-01T14:52:38.816Z,18.85
2022-11-01T14:55:14.066Z,18.67
2022-11-01T14:57:40.623Z,19.45
2022-11-01T15:00:25.356Z,19.48
2022-11-01T15:02:52.227Z,19.80
2022-11-01T15:05:20.331Z,19.00
2022-11-01T15:07:51.246Z,17.85
2022-11-01T15:10:17.870Z,18.77
2022-11-01T15:12:48.174Z,19.15
2022-11-01T15:15:18.910Z,18.85
2022-11-01T15:17:51.292Z,19.85
2022-11-01T15:20:21.127Z,19.08
2022-11-01T15:22:48.007Z,19.02
2022-11-01T15:25:21.933Z,17.60
2022-11-01T15:27:50.064Z,17.98
2022-11-01T15:30:21.833Z,16.92
2022-11-01T15:32:51.476Z,17.27
2022-11-01T15:35:23.441Z,17.92
2022-11-01T15:37:51.970Z,16.33
2022-11-01T15:40:27.494Z,16.85
2022-11-01T15:42:57.501Z,17.92
2022-11-01T15:45:28.586Z,17.98
2022-11-01T15:47:56.224Z,18.77
2022-11-01T15:50:24.203Z,18.00
2022-11-01T15:52:50.789Z,17.52
2022-11-01T15:55:26.965Z,17.52
2022-11-01T15:57:59.130Z,17.42
2022-11-01T16:00:33.104Z,16.95
2022-11-01T16:03:04.608Z,16.95
2022-11-01T16:05:36.950Z,17.85
2022-11-01T16:08:07.135Z,15.48
2022-11-01T16:10:34.071Z,15.57
2022-11-01T16:13:02.312Z,16.77
2022-11-01T16:15:31.053Z,17.02
2022-11-01T16:18:00.149Z,16.77
2022-11-01T16:20:34.572Z,16.23
2022-11-01T16:23:02.393Z,16.52
2022-11-01T16:25:31.629Z,18.27
2022-11-01T16:28:05.103Z,18.15
2022-11-01T16:30:40.336Z,17.05
2022-11-01T16:33:21.237Z,18.65
2022-11-01T16:35:50.626Z,18.65
2022-11-01T16:38:43.003Z,18.38
2022-11-01T16:41:18.265Z,16.70
2022-11-01T16:43:44.918Z,18.38
2022-11-01T16:46:11.631Z,16.70
2022-11-01T16:48:49.790Z,17.90
2022-11-01T16:51:18.373Z,18.02
2022-11-01T16:53:45.000Z,19.88
2022-11-01T16:56:35.574Z,16.98
2022-11-01T16:59:06.957Z,16.88
2022-11-01T17:01:35.868Z,16.20
2022-11-01T17:04:04.460Z,17.25
2022-11-01T17:06:36.130Z,17.23
2022-11-01T17:09:11.817Z,16.58
2022-11-01T17:11:38.394Z,20.33
2022-11-01T17:14:04.957Z,18.88
2022-11-01T17:16:31.805Z,20.48
2022-11-01T17:19:00.895Z,18.75
2022-11-01T17:21:30.960Z,19.05
2022-11-01T17:23:59.087Z,18.95
2022-11-01T17:26:25.664Z,18.27
2022-11-01T17:28:52.480Z,18.02
2022-11-01T17:31:19.299Z,18.00
2022-11-01T17:33:45.920Z,19.75
2022-11-01T17:36:14.219Z,19.10
2022-11-01T17:38:41.429Z,19.80
2022-11-01T17:41:14.885Z,20.38
2022-11-01T17:43:41.437Z,19.80
2022-11-01T17:46:13.392Z,19.10
2022-11-01T17:51:06.591Z,19.70
2022-11-01T17:53:33.144Z,18.77
2022-11-01T17:55:59.700Z,18.58
2022-11-01T17:58:27.641Z,17.35
2022-11-01T18:00:54.273Z,18.42
2022-11-01T18:03:20.892Z,18.30
2022-11-01T18:05:47.471Z,17.95
2022-11-01T18:08:16.486Z,21.48
2022-11-01T18:10:48.735Z,24.20
2022-11-01T18:13:50.432Z,18.52
2022-11-01T18:16:26.465Z,19.95
2022-11-01T18:19:34.804Z,18.85
2022-11-01T18:22:09.639Z,18.98
2022-11-01T18:24:41.763Z,17.63
2022-11-01T18:27:10.052Z,18.35
2022-11-01T18:29:41.166Z,17.75
2022-11-01T18:32:16.146Z,16.58
2022-11-01T18:34:47.689Z,18.23
2022-11-01T18:37:23.975Z,17.17
2022-11-01T18:39:58.157Z,16.38
2022-11-01T18:42:24.754Z,17.42
2022-11-01T18:44:56.944Z,16.23
2022-11-01T18:47:29.766Z,17.45
2022-11-01T18:49:59.546Z,15.93
2022-11-01T18:52:27.408Z,16.00
2022-11-01T18:54:56.843Z,16.00
2022-11-01T18:57:24.094Z,16.40
2022-11-01T18:59:53.120Z,17.30
2022-11-01T19:02:21.914Z,17.73
2022-11-01T19:04:51.116Z,16.95
2022-11-01T19:07:19.172Z,16.20
2022-11-01T19:09:52.295Z,16.23
2022-11-01T19:12:26.888Z,15.15
2022-11-01T19:15:03.211Z,15.57
2022-11-01T19:17:34.852Z,15.25
2022-11-01T19:20:01.465Z,18.58
2022-11-01T19:22:32.580Z,18.38
2022-11-01T19:25:00.260Z,19.38
2022-11-01T19:27:26.922Z,17.77
2022-11-01T19:29:57.777Z,16.52
2022-11-01T19:32:26.272Z,18.48
2022-11-01T19:34:54.645Z,19.85
2022-11-01T19:37:29.204Z,57.13
2022-11-01T19:39:58.196Z,22.90
2022-11-01T19:42:28.023Z,21.13
2022-11-01T19:44:57.889Z,22.30
2022-11-01T19:47:45.957Z,29.08
2022-11-01T19:50:20.322Z,21.80
2022-11-01T19:52:47.716Z,22.17
2022-11-01T19:55:38.536Z,22.80
2022-11-01T19:58:25.654Z,22.73
2022-11-01T20:01:15.223Z,20.20
2022-11-01T20:03:46.635Z,19.38
2022-11-01T20:06:16.294Z,20.38
2022-11-01T20:08:43.350Z,20.17
2022-11-01T20:11:09.923Z,19.35
2022-11-01T20:13:36.451Z,18.48
2022-11-01T20:16:03.013Z,17.90
2022-11-01T20:18:29.585Z,18.25
2022-11-01T20:20:57.554Z,17.90
2022-11-01T20:23:26.952Z,17.77
2022-11-01T20:25:54.241Z,17.95
2022-11-01T20:28:20.831Z,17.70
2022-11-01T20:30:47.429Z,18.25
2022-11-01T20:33:14.018Z,16.55
2022-11-01T20:35:40.587Z,16.10
2022-11-01T20:38:08.690Z,15.65
2022-11-01T20:40:35.788Z,16.38
2022-11-01T20:43:02.572Z,16.02
2022-11-01T20:45:29.460Z,15.55
2022-11-01T20:47:56.039Z,14.15
2022-11-01T20:50:22.618Z,13.63
2022-11-01T20:52:49.164Z,14.35
2022-11-01T20:55:17.456Z,14.27
2022-11-01T20:57:44.252Z,13.43
2022-11-01T21:00:12.172Z,14.40
2022-11-01T21:02:38.759Z,12.90
2022-11-01T21:05:15.137Z,13.23
2022-11-01T21:07:46.746Z,12.88
2022-11-01T21:10:31.790Z,11.20
2022-11-01T21:12:59.605Z,11.55
2022-11-01T21:15:33.153Z,12.02
2022-11-01T21:18:25.317Z,11.15
2022-11-01T21:23:25.440Z,12.45
2022-11-01T21:25:54.936Z,12.55
2022-11-01T21:28:27.908Z,12.02
2022-11-01T21:30:55.015Z,10.95
2022-11-01T21:33:31.495Z,12.75
2022-11-01T21:35:58.061Z,13.75
2022-11-01T21:38:40.906Z,13.68
2022-11-01T21:41:34.286Z,15.05
2022-11-01T21:44:14.247Z,14.38
2022-11-01T21:46:41.560Z,13.75
2022-11-01T21:49:23.953Z,19.10
2022-11-01T21:51:50.557Z,17.48
2022-11-01T21:54:17.126Z,17.48
2022-11-01T21:56:45.111Z,17.50
2022-11-01T21:59:11.981Z,18.20
2022-11-01T22:01:39.609Z,16.50
2022-11-01T22:04:06.286Z,17.88
2022-11-01T22:06:32.844Z,18.60
2022-11-01T22:08:59.400Z,17.45
2022-11-01T22:11:30.216Z,17.27
2022-11-01T22:14:00.509Z,18.13
2022-11-01T22:16:27.344Z,16.65
2022-11-01T22:18:54.009Z,16.55
2022-11-01T22:21:20.587Z,17.40
2022-11-01T22:23:47.454Z,18.02
2022-11-01T22:26:14.050Z,17.75
2022-11-01T22:28:40.653Z,17.85
2022-11-01T22:31:08.696Z,16.65
2022-11-01T22:33:36.021Z,16.40
2022-11-01T22:36:03.448Z,18.20
2022-11-01T22:38:35.431Z,16.25
2022-11-01T22:41:10.118Z,16.45
2022-11-01T22:43:40.342Z,17.88
2022-11-01T22:46:17.583Z,17.83
2022-11-01T22:48:44.157Z,16.08
2022-11-01T22:51:20.468Z,18.42
2022-11-01T22:53:47.168Z,16.88
2022-11-01T22:56:14.510Z,17.67
2022-11-01T22:58:41.113Z,19.08
2022-11-01T23:01:19.478Z,17.30
2022-11-01T23:03:51.711Z,17.55
2022-11-01T23:06:32.652Z,15.60
2022-11-01T23:09:10.636Z,17.42
2022-11-01T23:11:37.224Z,17.35
2022-11-01T23:14:15.855Z,17.42
2022-11-01T23:16:44.136Z,17.88
2022-11-01T23:19:13.356Z,18.20
2022-11-01T23:21:40.032Z,16.80
2022-11-01T23:24:07.566Z,17.88
2022-11-01T23:26:34.288Z,17.58
2022-11-01T23:29:01.768Z,17.70
2022-11-01T23:31:29.206Z,17.65
2022-11-01T23:33:57.157Z,19.52
2022-11-01T23:36:27.487Z,17.48
2022-11-01T23:38:56.495Z,18.98
2022-11-01T23:41:25.276Z,18.73
2022-11-01T23:43:53.792Z,18.45
2022-11-01T23:46:20.477Z,16.95
2022-11-01T23:48:47.430Z,18.55
2022-11-01T23:51:19.035Z,17.40
2022-11-01T23:53:48.304Z,16.48
2022-11-01T23:56:18.813Z,17.83
2022-11-01T23:58:48.289Z,17.83
